Terminal Aerodrome Forecast
Issued by NWS

Home | Current Version | Previous Version | Graphics & Text | Print | Product List | Glossary On
Versions: 1 2 3 4 5 6 7 8 9 10 11 12 13
000
FTUS43 KBIS 150527
TAFMOT
TAF
KMOT 150527Z 1506/1606 22006KT P6SM FEW070
     FM151100 24007KT P6SM BKN060 BKN100
     FM151500 26015KT P6SM FEW070 FEW100
     FM151800 29017G24KT P6SM FEW060 FEW250
     FM160100 27009KT P6SM SKC
     FM160300 21007KT P6SM SKC=

USA.gov is the U.S. government's official web portal to all federal, state and local government web resources and services.